LIBDLIBF

Guest
Details From LIBD - Bari Palese Macchie
To LIBF - Foggia Gino Lisa
Flight Number -
Tags generated
Created
Modified
Stats Distance 60 nm / 110 km
Max Altitude 300 ft / 91 m
Waypoints 3
Social Downloads 4
Likes 0
Share VATSIM

Download

Looking for another format? Having issues loading an existing format? Contact us
Advertisement - Login to hide

Notes

Basic altitude profile: - Ascent Rate: 2500ft/min - Ascent Speed: 250kts - Cruise Altitude: 35000ft - Cruise Speed: 420kts - Descent Rate: 1500ft/min - Descent Speed: 250kts Options: - Use NATs: yes - Use PACOTS: yes - Use low airways: yes - Use high airways: yes

Route

LIBD BAR LIBF

ID Type Via Altitude Latitude Longitude Leg Dist Tot Dist Heading (true) Name
O LIBD APT - 0 ft / 0 m 41.13787˚ 16.75832˚ - 0 nm - Bari Palese Macchie
BAR VOR - 300 ft / 91 m 41.14417˚ 16.77638˚ 0 nm 0 nm 65° / 65° BARI VOR-DME
O LIBF APT - 0 ft / 0 m 41.43362˚ 15.53462˚ 58 nm 59 nm 288° / 287° Foggia Gino Lisa

Altitude Profile

Advertisement - Login to hide

LIBD

Details ICAO LIBD (BRI)
Name Bari Palese Macchie
Region Italy
Timezone Europe/Rome (UTC+1.0)
Stats Elevation 177 ft / 54 m (AMSL)
Location 41.137865° 16.758318°
Runways 1
Magnetic Variation 3.736° E

METAR

LIBD 121550Z 18005KT 150V210 9999 FEW045 15/09 Q1016

Decode

TAF

TAF LIBD 121100Z 1212/1312 18008KT 9999 SCT030 TEMPO 1309/1312 RA

Decode

Departure Runways

ID Width Length Bearing (true) Bearing (mag) Surface Threshold Offset Overrun Length
07 148 ft / 45 m 9,262 ft / 2,823 m 69.39° 65.65° Asphalt 1,257 ft / 383 m 0 ft / 0 m
25 148 ft / 45 m 9,262 ft / 2,823 m 249.42° 245.68° Asphalt 0 ft / 0 m 194 ft / 59 m

LIBF

Details ICAO LIBF (FOG)
Name Foggia Gino Lisa
Region Italy
Timezone Europe/Rome (UTC+1.0)
Stats Elevation 265 ft / 81 m (AMSL)
Location 41.433617° 15.534615°
Runways 1
Magnetic Variation 3.554° E

METAR

LIBF 121450Z 19009KT 9999 FEW040 17/07 Q1014

Decode

TAF

Not found

Destination Runways

ID Width Length Bearing (true) Bearing (mag) Surface Threshold Offset Overrun Length
15 148 ft / 45 m 4,540 ft / 1,384 m 156.64° 153.09° Concrete 0 ft / 0 m 0 ft / 0 m
33 148 ft / 45 m 4,540 ft / 1,384 m 336.64° 333.09° Concrete 0 ft / 0 m 0 ft / 0 m